Flight Track Log - Related Links

Times and Time Zones

All times are in EDT time to prevent confusion due to time zone crossing. See the TCF3494 flight status page for this flight to view local times or setup timezone preferences in your user account.

Time Position Orientation Groundspeed Altitude Reporting Facility
EDT Latitude Longitude Course Direction KTS MPH feet Rate Location/Type
Sat 10:26:34 AM 39.8333 -104.7500 277° West 166 191 7,000  Level Denver TRACON
Sat 10:27:34 AM 39.8667 -104.8167 303° West 254 292 8,300 1,408 Climbing Denver TRACON
Sat 10:28:12 AM 39.8864 -104.8761 293° West 279 321 9,300 2,364 Climbing Denver Center
Sat 10:29:00 AM 39.9577 -105.2828 275° West  Level Estimated
Sat 10:29:13 AM 39.8992 -104.9914 278° West 299 344 12,200  Level Denver Center
Sat 10:30:00 AM 39.9559 -105.4385 269° West  Level FlightAware Approximate
Sat 10:30:15 AM 39.9119 -105.1119 278° West 337 388 15,200  Level Denver Center
Sat 10:31:00 AM 39.9798 -105.5911 277° West  Level Estimated
Sat 10:31:17 AM 39.9272 -105.2444 279° West 344 396 17,900  Level Denver Center
Sat 10:32:18 AM 39.9394 -105.3717 277° West 354 407 20,500 2,390 Climbing Denver Center
Sat 10:33:20 AM 39.9558 -105.5019 279° West 364 419 22,800 2,032 Climbing Denver Center
Sat 10:34:22 AM 39.9681 -105.6269 277° West 370 426 24,700 1,951 Climbing Denver Center
Sat 10:35:23 AM 39.9731 -105.7978 272° West 392 451 26,800 1,610 Climbing Denver Center
Sat 10:36:25 AM 39.9742 -105.9414 271° West 397 457 28,000 581 Climbing Denver Center
Sat 10:37:27 AM 39.9839 -106.0917 275° West 414 476 28,000  Level Denver Center
Sat 10:38:29 AM 39.9911 -106.2386 274° West 409 471 28,000  Level Denver Center
Sat 10:39:30 AM 39.9989 -106.3875 274° West 412 474 28,000  Level Denver Center
Sat 10:40:32 AM 40.0081 -106.5469 274° West 421 484 28,000  Level Denver Center
Sat 10:41:34 AM 40.0161 -106.7253 273° West 439 505 28,000  Level Denver Center
Sat 10:42:36 AM 40.0228 -106.8747 273° West 434 499 28,000  Level Denver Center
Sat 10:43:38 AM 40.0322 -107.0519 274° West 438 504 28,000  Level Denver Center
Sat 10:44:39 AM 40.0389 -107.2033 273° West 439 505 28,000  Level Denver Center
Sat 10:45:41 AM 40.0450 -107.3542 273° West 436 502 28,000  Level Denver Center
Sat 10:46:43 AM 40.0517 -107.5292 273° West 434 499 28,000  Level Denver Center
Sat 10:47:45 AM 40.0583 -107.6806 273° West 437 503 28,000  Level Denver Center
Sat 10:48:47 AM 40.0650 -107.8564 273° West 437 503 28,000  Level Denver Center
Sat 10:49:49 AM 40.0711 -108.0081 273° West 438 504 28,000  Level Denver Center
Sat 10:50:51 AM 40.0803 -108.1858 274° West 441 507 28,000  Level Denver Center
Sat 10:51:52 AM 40.0858 -108.3381 273° West 441 507 28,000  Level Denver Center
Sat 10:52:54 AM 40.0933 -108.5158 273° West 441 507 28,000  Level Denver Center
Sat 10:53:56 AM 40.0994 -108.6672 273° West 439 505 28,000  Level Denver Center
Sat 10:54:58 AM 40.1064 -108.8456 273° West 443 510 28,000  Level Denver Center
Sat 10:56:00 AM 40.1119 -108.9972 273° West 440 506 28,000  Level Denver Center
Sat 10:57:02 AM 40.1183 -109.1742 273° West 438 504 28,000  Level Denver Center
Sat 10:57:40 AM 40.1225 -109.2736 273° West 435 501 28,000  Level Salt Lake Center
Sat 10:58:42 AM 40.1272 -109.4247 272° West 435 501 28,000  Level Salt Lake Center
Sat 10:59:43 AM 40.1333 -109.6017 273° West 437 503 28,000  Level Salt Lake Center
Sat 11:00:45 AM 40.1381 -109.7519 272° West 434 499 28,000  Level Salt Lake Center
Sat 11:01:47 AM 40.1422 -109.9042 272° West 438 504 28,000  Level Salt Lake Center
Sat 11:02:49 AM 40.1475 -110.0817 272° West 438 504 28,000  Level Salt Lake Center
Sat 11:03:50 AM 40.1486 -110.2350 271° West 441 507 28,000  Level Salt Lake Center
Sat 11:04:52 AM 40.1472 -110.4114 269° West 437 503 28,000  Level Salt Lake Center
Sat 11:05:54 AM 40.1450 -110.5661 269° West 443 510 28,000  Level Salt Lake Center
Sat 11:06:56 AM 40.1431 -110.7442 269° West 441 507 28,000  Level Salt Lake Center
Sat 11:07:58 AM 40.1411 -110.8983 269° West 442 509 28,000 -1,016 Level Salt Lake Center
Sat 11:09:00 AM 40.1389 -111.0592 269° West 433 498 25,900 -2,098 Descending Salt Lake Center
Sat 11:10:01 AM 40.1367 -111.2061 269° West 414 476 23,700 -2,049 Descending Salt Lake Center
Sat 11:11:03 AM 40.1347 -111.3464 269° West 390 449 21,700 -1,984 Descending Salt Lake Center
Sat 11:12:05 AM 40.1317 -111.4853 268° West 382 440 19,600 -1,976 Descending Salt Lake Center
Sat 11:12:25 AM 40.1317 -111.5556 270° West 370 426 19,000 -581 Descending Salt Lake Center
Sat 11:13:07 AM 40.1544 -111.6147 297° West 373 429 19,000  Level Salt Lake Center
Sat 11:13:32 AM 40.1789 -111.6939 292° West 373 429 19,000 -581 Level Salt Lake Center
Sat 11:14:09 AM 40.2256 -111.7447 320° Northwest 381 438 18,400 -1,279 Descending Salt Lake Center
Sat 11:14:33 AM 40.2542 -111.7778 319° Northwest 370 426 17,700 -2,032 Descending Salt Lake Center
Sat 11:15:11 AM 40.3122 -111.8169 333° Northwest 368 423 16,300 -2,077 Descending Salt Lake Center
Sat 11:15:51 AM 40.3694 -111.8708 324° Northwest 362 417 15,000 -1,258 Descending Salt Lake Center
Sat 11:16:13 AM 40.3964 -111.8853 338° Northwest 356 410 15,000  Level Salt Lake Center
Sat 11:16:58 AM 40.4636 -111.9433 327° Northwest 352 405 15,000 -194 Level Salt Lake Center
Sat 11:17:15 AM 40.4794 -111.9525 336° Northwest 352 405 14,800 -1,527 Descending Salt Lake Center
Sat 11:17:53 AM 40.5383 -112.0053 326° Northwest 350 403 13,600 -1,355 Descending Salt Lake Center
Sat 11:18:17 AM 40.5608 -112.0192 335° Northwest 343 395 13,400 -1,100 Descending Salt Lake Center
Sat 11:18:53 AM 40.6200 -112.0708 326° Northwest 340 391 12,500 -1,258 Descending Salt Lake Center
Sat 11:19:19 AM 40.6431 -112.0792 345° North 341 392 12,100 -1,814 Descending Salt Lake Center
Sat 11:19:36 AM 40.6858 -112.0883 351° North 339 390 11,200 -1,065 Descending Salt Lake Center
Sat 11:20:21 AM 40.7514 -112.0922 357° North 315 362 11,000 -197 Descending Salt Lake Center
Sat 11:20:37 AM 40.7697 -112.0994 343° North 280 322 11,000 -774 Level Salt Lake Center
Sat 11:21:23 AM 40.8217 -112.1008 359° North 250 288 10,200 -1,279 Descending Salt Lake Center
Sat 11:21:38 AM 40.8375 -112.1047 349° North 251 289 9,700 -1,452 Descending Salt Lake Center
Sat 11:22:25 AM 40.8914 -112.1092 356° North 250 288 8,700 -1,300 Descending Salt Lake Center
Sat 11:22:38 AM 40.9081 -112.1122 352° North 247 284 8,400 -677 Descending Salt Lake Center
Sat 11:23:27 AM 40.9503 -112.0983 14° North 228 262 8,000 -627 Descending Salt Lake Center
Sat 11:23:45 AM 40.9558 -112.0706 75° East 216 249 7,700 -1,161 Descending Salt Lake Center
Sat 11:24:29 AM 40.9600 -112.0225 83° East 212 244 6,800 -1,475 Descending Salt Lake Center
Sat 11:24:46 AM 40.9442 -112.0006 134° Southeast 208 239 6,200 -774 Descending Salt Lake Center
Sat 11:25:31 AM 40.9111 -111.9908 167° South 211 243 6,000 -537 Descending Salt Lake Center
Sat 11:25:53 AM 40.8836 -111.9872 174° South 207 238 5,600 -968 Descending Salt Lake Center
Sat 11:26:33 AM 40.8483 -111.9817 173° South 179 206 5,000 -787 Descending Salt Lake Center
Sat 11:26:54 AM 40.8375 -111.9831 186° South 153 176 4,800 -677 Descending Salt Lake Center
Sat 11:27:35 AM 40.8114 -111.9772 170° South 138 159 4,300 -732 Descending Salt Lake Center

Login

Don't have an account? Register now (free) for customized features, flight alerts, and more!